createdAt,value
2023-04-01T00:01:44.745Z,5.10
2023-04-01T00:04:11.393Z,4.68
2023-04-01T00:06:37.994Z,3.75
2023-04-01T00:09:05.027Z,6.80
2023-04-01T00:11:33.324Z,3.55
2023-04-01T00:14:00.098Z,3.75
2023-04-01T00:16:26.865Z,4.70
2023-04-01T00:18:53.528Z,5.10
2023-04-01T00:21:23.708Z,6.07
2023-04-01T00:26:20.090Z,9.35
2023-04-01T00:28:47.036Z,8.70
2023-04-01T00:31:14.951Z,5.45
2023-04-01T00:33:42.295Z,5.13
2023-04-01T00:36:14.184Z,6.80
2023-04-01T00:38:42.676Z,5.68
2023-04-01T00:41:15.139Z,6.65
2023-04-01T00:43:43.753Z,5.85
2023-04-01T00:46:10.515Z,5.70
2023-04-01T00:48:41.159Z,11.98
2023-04-01T00:51:14.871Z,7.32
2023-04-01T00:53:46.229Z,5.65
2023-04-01T00:56:15.412Z,4.85
2023-04-01T00:58:55.749Z,8.80
2023-04-01T01:01:24.982Z,5.90
2023-04-01T01:03:51.979Z,6.47
2023-04-01T01:06:39.935Z,7.80
2023-04-01T01:09:26.275Z,6.18
2023-04-01T01:12:05.975Z,6.50
2023-04-01T01:14:51.474Z,8.02
2023-04-01T01:17:31.921Z,6.30
2023-04-01T01:20:30.754Z,6.75
2023-04-01T01:23:20.867Z,8.63
2023-04-01T01:26:22.156Z,6.50
2023-04-01T01:29:13.286Z,8.23
2023-04-01T01:31:56.097Z,10.52
2023-04-01T01:34:55.763Z,8.48
2023-04-01T01:37:25.911Z,7.45
2023-04-01T01:42:26.971Z,8.63
2023-04-01T01:44:55.980Z,10.13
2023-04-01T01:47:24.313Z,11.43
2023-04-01T01:49:53.131Z,9.93
2023-04-01T01:52:20.026Z,6.22
2023-04-01T01:54:54.918Z,10.98
2023-04-01T01:57:27.339Z,9.65
2023-04-01T01:59:59.731Z,7.80
2023-04-01T02:02:27.477Z,10.68
2023-04-01T02:04:55.670Z,6.82
2023-04-01T02:07:28.668Z,7.57
2023-04-01T02:09:55.574Z,10.98
2023-04-01T02:12:24.748Z,12.05
2023-04-01T02:15:09.141Z,7.32
2023-04-01T02:17:41.226Z,10.20
2023-04-01T02:20:32.484Z,9.40
2023-04-01T02:23:00.842Z,9.93
2023-04-01T02:25:35.446Z,10.10
2023-04-01T02:28:08.798Z,11.27
2023-04-01T02:30:39.073Z,9.40
2023-04-01T02:33:07.039Z,11.02
2023-04-01T02:35:37.317Z,10.50
2023-04-01T02:40:30.903Z,12.52
2023-04-01T02:42:57.661Z,13.45
2023-04-01T02:45:24.416Z,13.57
2023-04-01T02:47:51.461Z,12.70
2023-04-01T02:50:18.228Z,10.38
2023-04-01T02:52:44.861Z,11.48
2023-04-01T02:55:11.509Z,13.48
2023-04-01T02:57:38.315Z,13.88
2023-04-01T03:00:05.559Z,13.63
2023-04-01T03:02:32.316Z,13.35
2023-04-01T03:04:59.133Z,13.63
2023-04-01T03:07:25.844Z,14.93
2023-04-01T03:09:52.508Z,11.32
2023-04-01T03:12:19.247Z,13.73
2023-04-01T03:14:45.906Z,14.65
2023-04-01T03:17:12.554Z,15.95
2023-04-01T03:19:39.279Z,16.25
2023-04-01T03:22:06.014Z,12.15
2023-04-01T03:24:32.676Z,15.65
2023-04-01T03:26:59.308Z,14.30
2023-04-01T03:29:26.104Z,12.00
2023-04-01T03:31:52.938Z,17.83
2023-04-01T03:34:22.554Z,12.38
2023-04-01T03:36:49.161Z,12.68
2023-04-01T03:39:19.654Z,14.18
2023-04-01T03:41:47.486Z,15.85
2023-04-01T03:44:14.444Z,16.40
2023-04-01T03:46:41.332Z,15.38
2023-04-01T03:49:12.630Z,16.10
2023-04-01T03:51:41.325Z,13.90
2023-04-01T03:54:08.121Z,14.45
2023-04-01T03:56:35.094Z,15.55
2023-04-01T03:59:07.154Z,19.35
2023-04-01T04:01:34.313Z,14.98
2023-04-01T04:04:01.441Z,15.85
2023-04-01T04:06:29.302Z,14.80
2023-04-01T04:08:56.050Z,15.73
2023-04-01T04:11:23.476Z,17.55
2023-04-01T04:13:50.338Z,20.02
2023-04-01T04:16:18.477Z,16.80
2023-04-01T04:18:45.379Z,16.65
2023-04-01T04:21:16.247Z,18.13
2023-04-01T04:23:43.698Z,16.45
2023-04-01T04:26:13.376Z,15.18
2023-04-01T04:28:40.178Z,18.55
2023-04-01T04:31:07.418Z,17.55
2023-04-01T04:33:34.703Z,15.25
2023-04-01T04:36:04.553Z,17.00
2023-04-01T04:38:31.586Z,17.60
2023-04-01T04:40:59.020Z,18.25
2023-04-01T04:43:25.666Z,19.15
2023-04-01T04:45:52.398Z,13.00
2023-04-01T04:48:20.131Z,18.17
2023-04-01T04:50:51.795Z,19.88
2023-04-01T04:53:19.805Z,16.48
2023-04-01T04:55:48.453Z,17.50
2023-04-01T04:58:15.526Z,13.65
2023-04-01T05:00:42.579Z,15.15
2023-04-01T05:03:10.118Z,17.13
2023-04-01T05:05:37.196Z,16.30
2023-04-01T05:08:04.810Z,23.27
2023-04-01T05:10:32.393Z,16.98
2023-04-01T05:12:59.597Z,18.00
2023-04-01T05:15:26.322Z,15.65
2023-04-01T05:17:53.004Z,14.93
2023-04-01T05:20:19.737Z,16.08
2023-04-01T05:22:46.487Z,17.15
2023-04-01T05:25:13.288Z,16.10
2023-04-01T05:27:39.968Z,17.67
2023-04-01T05:30:07.307Z,17.02
2023-04-01T05:32:34.160Z,15.07
2023-04-01T05:35:01.045Z,14.32
2023-04-01T05:37:27.745Z,17.30
2023-04-01T05:39:54.428Z,17.83
2023-04-01T05:42:21.155Z,16.17
2023-04-01T05:44:47.869Z,16.52
2023-04-01T05:47:14.476Z,16.05
2023-04-01T05:49:41.217Z,15.95
2023-04-01T05:52:08.154Z,18.73
2023-04-01T05:54:34.945Z,15.88
2023-04-01T05:57:01.738Z,14.68
2023-04-01T05:59:28.517Z,13.40
2023-04-01T06:01:55.208Z,17.02
2023-04-01T06:04:22.002Z,13.50
2023-04-01T06:06:48.779Z,14.20
2023-04-01T06:09:26.495Z,15.95
2023-04-01T06:12:27.150Z,14.20
2023-04-01T06:14:59.593Z,14.80
2023-04-01T06:18:04.068Z,15.95
2023-04-01T06:21:21.238Z,10.88
2023-04-01T06:24:29.929Z,11.98
2023-04-01T06:27:24.545Z,15.98
2023-04-01T06:30:08.133Z,13.25
2023-04-01T06:33:25.176Z,12.43
2023-04-01T06:36:20.989Z,16.25
2023-04-01T06:39:12.340Z,17.23
2023-04-01T06:42:05.302Z,12.50
2023-04-01T06:44:57.412Z,11.07
2023-04-01T06:47:45.372Z,15.52
2023-04-01T06:50:34.934Z,15.55
2023-04-01T06:53:13.427Z,20.17
2023-04-01T06:55:47.073Z,12.40
2023-04-01T06:58:23.321Z,21.52
2023-04-01T07:00:54.395Z,15.77
2023-04-01T07:03:42.264Z,16.33
2023-04-01T07:06:19.977Z,14.02
2023-04-01T07:08:47.809Z,14.77
2023-04-01T07:11:27.958Z,15.32
2023-04-01T07:14:03.201Z,13.15
2023-04-01T07:16:42.108Z,16.45
2023-04-01T07:19:26.322Z,17.30
2023-04-01T07:22:05.739Z,18.60
2023-04-01T07:24:47.126Z,13.38
2023-04-01T07:27:15.664Z,11.35
2023-04-01T07:29:42.692Z,13.75
2023-04-01T07:32:27.603Z,12.65
2023-04-01T07:35:20.601Z,10.32
2023-04-01T07:38:11.397Z,12.55
2023-04-01T07:40:55.221Z,12.38
2023-04-01T07:43:35.486Z,8.38
2023-04-01T07:48:58.228Z,10.80
2023-04-01T07:51:56.222Z,11.38
2023-04-01T07:54:51.174Z,6.47
2023-04-01T07:57:28.432Z,5.40
2023-04-01T08:00:04.774Z,4.18
2023-04-01T08:02:58.355Z,7.50
2023-04-01T08:05:33.673Z,6.57
2023-04-01T08:08:24.350Z,4.43
2023-04-01T08:11:17.176Z,4.68
2023-04-01T08:14:11.513Z,8.32
2023-04-01T08:17:02.463Z,3.47
2023-04-01T08:19:46.784Z,2.72
2023-04-01T08:22:42.579Z,3.95
2023-04-01T08:25:18.986Z,3.35
2023-04-01T08:27:52.304Z,2.00
2023-04-01T08:30:23.630Z,2.47
2023-04-01T08:33:15.081Z,2.17
2023-04-01T08:35:56.265Z,4.22
2023-04-01T08:38:35.498Z,3.20
2023-04-01T08:41:21.990Z,6.32
2023-04-01T08:44:05.142Z,9.63
2023-04-01T08:46:56.917Z,10.88
2023-04-01T08:49:48.478Z,10.10
2023-04-01T08:52:33.781Z,9.77
2023-04-01T08:55:26.311Z,9.57
2023-04-01T08:58:19.428Z,11.52
2023-04-01T09:01:05.750Z,15.52
2023-04-01T09:03:48.186Z,14.32
2023-04-01T09:06:48.821Z,14.25
2023-04-01T09:09:34.049Z,17.75
2023-04-01T09:12:22.913Z,15.35
2023-04-01T09:15:20.839Z,13.90
2023-04-01T09:17:57.760Z,8.98
2023-04-01T09:21:03.617Z,10.02
2023-04-01T09:23:41.687Z,17.35
2023-04-01T09:26:15.023Z,9.15
2023-04-01T09:29:01.108Z,11.95
2023-04-01T09:32:08.313Z,12.50
2023-04-01T09:34:44.723Z,12.52
2023-04-01T09:37:22.577Z,12.48
2023-04-01T09:40:10.100Z,12.85
2023-04-01T09:42:50.349Z,14.80
2023-04-01T09:48:23.977Z,9.93
2023-04-01T09:50:58.432Z,9.93
2023-04-01T09:53:40.546Z,11.02
2023-04-01T09:56:21.399Z,10.60
2023-04-01T09:59:07.714Z,7.13
2023-04-01T10:01:40.453Z,5.68
2023-04-01T10:04:55.435Z,7.63
2023-04-01T10:07:59.464Z,11.52
2023-04-01T10:10:53.403Z,8.82
2023-04-01T10:13:50.960Z,8.35
2023-04-01T10:16:40.704Z,8.60
2023-04-01T10:19:40.194Z,9.82
2023-04-01T10:22:47.699Z,8.20
2023-04-01T10:25:51.206Z,6.95
2023-04-01T10:28:54.975Z,8.05
2023-04-01T10:31:42.749Z,7.88
2023-04-01T10:34:46.552Z,7.47
2023-04-01T10:38:03.827Z,6.43
2023-04-01T10:40:49.204Z,6.95
2023-04-01T10:43:53.517Z,6.95
2023-04-01T10:46:35.594Z,7.85
2023-04-01T10:49:26.367Z,7.07
2023-04-01T10:52:24.970Z,5.13
2023-04-01T10:55:16.376Z,5.57
2023-04-01T10:58:02.776Z,7.40
2023-04-01T11:01:10.436Z,6.95
2023-04-01T11:04:19.208Z,7.80
2023-04-01T11:07:07.276Z,4.45
2023-04-01T11:10:09.505Z,6.43
2023-04-01T11:13:20.258Z,4.80
2023-04-01T11:16:05.912Z,7.32
2023-04-01T11:18:44.749Z,5.63
2023-04-01T11:21:44.877Z,8.20
2023-04-01T11:24:31.910Z,6.72
2023-04-01T11:27:16.709Z,5.70
2023-04-01T11:30:09.127Z,7.05
2023-04-01T11:32:47.081Z,12.70
2023-04-01T11:35:32.849Z,8.85
2023-04-01T11:38:20.782Z,7.07
2023-04-01T11:41:03.983Z,9.05
2023-04-01T11:43:47.639Z,10.95
2023-04-01T11:47:04.535Z,8.27
2023-04-01T11:49:45.945Z,10.27
2023-04-01T11:53:05.732Z,6.68
2023-04-01T11:55:53.623Z,7.78
2023-04-01T11:58:45.864Z,9.75
2023-04-01T12:01:19.093Z,8.63
2023-04-01T12:04:11.031Z,7.57
2023-04-01T12:06:53.550Z,6.43
2023-04-01T12:09:41.604Z,7.05
2023-04-01T12:12:15.189Z,5.43
2023-04-01T12:15:06.798Z,7.97
2023-04-01T12:17:58.379Z,6.18
2023-04-01T12:20:52.414Z,7.97
2023-04-01T12:23:38.641Z,7.20
2023-04-01T12:26:22.893Z,6.38
2023-04-01T12:29:08.863Z,6.75
2023-04-01T12:31:40.256Z,5.68
2023-04-01T12:34:45.175Z,7.03
2023-04-01T12:37:54.822Z,7.90
2023-04-01T12:40:26.612Z,4.60
2023-04-01T12:43:07.351Z,8.82
2023-04-01T12:45:37.038Z,7.55
2023-04-01T12:48:16.777Z,8.27
2023-04-01T12:51:08.869Z,7.85
2023-04-01T12:54:01.101Z,8.05
2023-04-01T12:56:46.959Z,6.95
2023-04-01T12:59:33.236Z,5.40
2023-04-01T13:02:29.855Z,6.38
2023-04-01T13:05:16.585Z,6.70
2023-04-01T13:08:08.241Z,6.50
2023-04-01T13:10:59.260Z,5.88
2023-04-01T13:13:35.836Z,6.22
2023-04-01T13:16:28.240Z,6.47
2023-04-01T13:19:07.422Z,6.32
2023-04-01T13:21:52.484Z,6.10
2023-04-01T13:24:48.767Z,5.32
2023-04-01T13:27:25.841Z,4.22
2023-04-01T13:29:58.576Z,5.07
2023-04-01T13:32:49.051Z,5.32
2023-04-01T13:35:40.343Z,5.07
2023-04-01T13:38:42.031Z,5.22
2023-04-01T13:41:34.216Z,3.75
2023-04-01T13:44:27.477Z,5.95
2023-04-01T13:47:00.279Z,5.22
2023-04-01T13:49:43.772Z,7.45
2023-04-01T13:52:32.158Z,6.15
2023-04-01T13:55:26.167Z,8.20
2023-04-01T13:58:27.958Z,6.05
2023-04-01T14:01:10.231Z,5.35
2023-04-01T14:04:02.771Z,4.18
2023-04-01T14:06:47.298Z,3.33
2023-04-01T14:09:31.353Z,4.38
2023-04-01T14:12:14.014Z,4.60
2023-04-01T14:15:05.429Z,5.45
2023-04-01T14:18:01.007Z,3.03
2023-04-01T14:20:37.358Z,4.35
2023-04-01T14:23:48.003Z,2.03
2023-04-01T14:26:31.194Z,3.28
2023-04-01T14:29:18.949Z,2.80
2023-04-01T14:32:03.034Z,4.50
2023-04-01T14:35:17.525Z,2.00
2023-04-01T14:38:03.688Z,4.68
2023-04-01T14:40:39.722Z,3.28
2023-04-01T14:43:21.807Z,4.70
2023-04-01T14:46:17.740Z,5.75
2023-04-01T14:48:51.329Z,6.82
2023-04-01T14:51:30.856Z,5.65
2023-04-01T14:54:14.724Z,3.35
2023-04-01T14:56:49.396Z,3.08
2023-04-01T14:59:28.251Z,3.13
2023-04-01T15:02:02.024Z,4.47
2023-04-01T15:04:50.020Z,3.95
2023-04-01T15:07:50.387Z,3.38
2023-04-01T15:10:45.788Z,4.70
2023-04-01T15:13:20.841Z,4.88
2023-04-01T15:16:08.856Z,6.20
2023-04-01T15:19:01.919Z,7.45
2023-04-01T15:21:56.525Z,4.82
2023-04-01T15:24:48.985Z,5.95
2023-04-01T15:27:33.747Z,4.50
2023-04-01T15:30:30.109Z,3.63
2023-04-01T15:33:10.546Z,5.00
2023-04-01T15:36:16.709Z,6.80
2023-04-01T15:39:04.467Z,4.80
2023-04-01T15:42:08.774Z,3.92
2023-04-01T15:44:54.000Z,5.35
2023-04-01T15:47:27.155Z,4.55
2023-04-01T15:50:27.035Z,5.22
2023-04-01T15:53:21.783Z,3.60
2023-04-01T15:56:13.896Z,5.28
2023-04-01T15:59:03.274Z,5.13
2023-04-01T16:01:52.263Z,6.95
2023-04-01T16:04:48.356Z,5.20
2023-04-01T16:07:48.409Z,7.10
2023-04-01T16:10:35.166Z,8.80
2023-04-01T16:13:39.282Z,5.65
2023-04-01T16:16:31.518Z,5.57
2023-04-01T16:19:17.438Z,8.13
2023-04-01T16:22:10.932Z,9.93
2023-04-01T16:25:13.107Z,8.30
2023-04-01T16:28:05.196Z,5.20
2023-04-01T16:30:44.892Z,4.57
2023-04-01T16:33:30.597Z,4.60
2023-04-01T16:36:01.626Z,5.35
2023-04-01T16:38:32.165Z,5.20
2023-04-01T16:41:26.884Z,6.65
2023-04-01T16:43:59.895Z,5.20
2023-04-01T16:46:36.486Z,5.65
2023-04-01T16:49:12.319Z,6.85
2023-04-01T16:51:55.883Z,5.57
2023-04-01T16:54:22.446Z,7.72
2023-04-01T16:56:55.620Z,8.32
2023-04-01T16:59:35.779Z,8.48
2023-04-01T17:05:01.470Z,5.35
2023-04-01T17:07:56.296Z,8.45
2023-04-01T17:10:33.126Z,6.10
2023-04-01T17:13:09.694Z,6.10
2023-04-01T17:15:45.775Z,8.60
2023-04-01T17:18:22.783Z,6.45
2023-04-01T17:21:08.777Z,9.52
2023-04-01T17:23:41.959Z,6.43
2023-04-01T17:26:46.374Z,8.07
2023-04-01T17:29:44.858Z,10.52
2023-04-01T17:32:37.303Z,9.95
2023-04-01T17:35:09.404Z,7.72
2023-04-01T17:37:58.616Z,8.23
2023-04-01T17:40:39.263Z,6.20
2023-04-01T17:43:13.585Z,7.40
2023-04-01T17:45:52.522Z,6.28
2023-04-01T17:48:51.602Z,5.68
2023-04-01T17:51:41.610Z,6.25
2023-04-01T17:54:29.388Z,8.18
2023-04-01T17:57:25.804Z,7.70
2023-04-01T18:00:18.251Z,6.88
2023-04-01T18:03:22.577Z,6.60
2023-04-01T18:06:04.654Z,8.15
2023-04-01T18:09:02.303Z,7.88
2023-04-01T18:11:41.215Z,9.45
2023-04-01T18:14:28.729Z,7.97
2023-04-01T18:17:17.880Z,7.60
2023-04-01T18:19:57.419Z,7.47
2023-04-01T18:22:44.202Z,8.23
2023-04-01T18:25:32.915Z,7.28
2023-04-01T18:28:21.996Z,7.32
2023-04-01T18:31:03.293Z,7.80
2023-04-01T18:33:53.909Z,8.38
2023-04-01T18:36:36.790Z,7.90
2023-04-01T18:39:11.693Z,9.25
2023-04-01T18:41:57.728Z,10.43
2023-04-01T18:44:51.241Z,10.45
2023-04-01T18:47:44.622Z,9.25
2023-04-01T18:50:49.117Z,10.43
2023-04-01T18:53:43.914Z,10.20
2023-04-01T18:56:26.716Z,11.88
2023-04-01T18:59:20.285Z,10.27
2023-04-01T19:01:58.980Z,8.02
2023-04-01T19:04:40.228Z,7.43
2023-04-01T19:07:44.368Z,11.90
2023-04-01T19:10:22.779Z,9.73
2023-04-01T19:13:18.110Z,9.60
2023-04-01T19:16:11.664Z,12.98
2023-04-01T19:19:01.542Z,10.85
2023-04-01T19:21:54.329Z,13.15
2023-04-01T19:24:51.208Z,10.48
2023-04-01T19:27:41.100Z,12.02
2023-04-01T19:30:53.925Z,9.73
2023-04-01T19:33:42.075Z,15.45
2023-04-01T19:36:43.374Z,11.30
2023-04-01T19:39:24.904Z,11.70
2023-04-01T19:42:21.110Z,11.98
2023-04-01T19:44:47.789Z,11.55
2023-04-01T19:47:29.770Z,15.98
2023-04-01T19:50:07.881Z,16.70
2023-04-01T19:52:38.892Z,14.38
2023-04-01T19:55:24.180Z,18.20
2023-04-01T19:58:34.490Z,12.82
2023-04-01T20:03:39.957Z,17.58
2023-04-01T20:06:20.654Z,18.13
2023-04-01T20:09:08.854Z,17.38
2023-04-01T20:12:04.940Z,17.48
2023-04-01T20:14:42.644Z,20.02
2023-04-01T20:17:19.625Z,17.50
2023-04-01T20:19:57.170Z,18.52
2023-04-01T20:22:26.143Z,16.33
2023-04-01T20:24:55.926Z,18.15
2023-04-01T20:27:31.957Z,21.65
2023-04-01T20:30:31.547Z,14.55
2023-04-01T20:33:14.794Z,24.38
2023-04-01T20:36:15.174Z,18.27
2023-04-01T20:39:05.818Z,17.08
2023-04-01T20:42:06.338Z,20.58
2023-04-01T20:45:19.699Z,21.77
2023-04-01T20:47:55.397Z,21.17
2023-04-01T20:50:49.828Z,19.73
2023-04-01T20:53:38.015Z,17.02
2023-04-01T20:56:29.606Z,17.73
2023-04-01T20:59:25.005Z,19.33
2023-04-01T21:02:29.494Z,21.80
2023-04-01T21:05:27.155Z,13.48
2023-04-01T21:08:10.058Z,16.80
2023-04-01T21:10:51.185Z,11.95
2023-04-01T21:13:54.926Z,13.93
2023-04-01T21:16:58.615Z,15.57
2023-04-01T21:19:50.828Z,11.63
2023-04-01T21:22:46.402Z,15.52
2023-04-01T21:25:31.536Z,15.10
2023-04-01T21:28:26.487Z,16.23
2023-04-01T21:31:01.550Z,13.77
2023-04-01T21:33:46.105Z,16.13
2023-04-01T21:36:45.513Z,13.88
2023-04-01T21:39:48.458Z,20.98
2023-04-01T21:42:23.795Z,15.13
2023-04-01T21:45:10.258Z,14.13
2023-04-01T21:48:12.679Z,17.90
2023-04-01T21:51:09.630Z,13.13
2023-04-01T21:53:45.754Z,16.88
2023-04-01T21:56:36.460Z,14.98
2023-04-01T21:59:21.702Z,11.50
2023-04-01T22:02:18.852Z,11.18
2023-04-01T22:05:00.888Z,15.40
2023-04-01T22:07:40.394Z,15.18
2023-04-01T22:10:31.704Z,11.80
2023-04-01T22:13:09.339Z,12.27
2023-04-01T22:16:03.634Z,7.20
2023-04-01T22:18:40.714Z,7.97
2023-04-01T22:21:22.237Z,8.25
2023-04-01T22:24:16.307Z,7.18
2023-04-01T22:27:19.324Z,10.68
2023-04-01T22:30:17.596Z,7.72
2023-04-01T22:32:55.592Z,10.90
2023-04-01T22:35:32.597Z,14.10
2023-04-01T22:38:20.808Z,11.65
2023-04-01T22:41:21.054Z,10.65
2023-04-01T22:46:27.717Z,8.57
2023-04-01T22:49:10.634Z,9.43
2023-04-01T22:51:46.119Z,9.70
2023-04-01T22:54:29.795Z,8.73
2023-04-01T22:57:01.834Z,9.00
2023-04-01T22:59:40.365Z,8.73
2023-04-01T23:02:32.679Z,8.07
2023-04-01T23:05:04.631Z,6.78
2023-04-01T23:07:57.292Z,13.35
2023-04-01T23:10:47.582Z,9.73
2023-04-01T23:13:24.128Z,7.65
2023-04-01T23:15:54.144Z,7.10
2023-04-01T23:18:49.052Z,9.15
2023-04-01T23:21:35.417Z,9.40
2023-04-01T23:24:22.015Z,10.27
2023-04-01T23:27:20.323Z,10.45
2023-04-01T23:29:47.158Z,10.88
2023-04-01T23:32:19.808Z,10.40
2023-04-01T23:34:52.178Z,8.10
2023-04-01T23:37:20.306Z,9.75
2023-04-01T23:39:52.960Z,9.70
2023-04-01T23:42:21.705Z,8.00
2023-04-01T23:44:51.371Z,12.05
2023-04-01T23:47:46.608Z,11.75
2023-04-01T23:50:25.156Z,9.20
2023-04-01T23:53:03.176Z,10.55
2023-04-01T23:55:34.197Z,8.18
2023-04-01T23:58:16.260Z,8.20
